96MI weather

Dick Huvaere's Heliport
Petoskey, Michigan, United States

Public forecast

Using degrees Fahrenheit for public forecast. Weather courtesy of forecast.io.

Closest aviation weather report (METAR) to Dick Huvaere's Heliport

Closest report is Harbor Springs Airport, 2.4 nm (4.5 km) NW. Retrieved 2019/10/17 22:36 UTC (0 seconds ago):

KMGN 172236Z AUTO 36004KT 10SM SCT033 SCT044 07/02 A2997 RMK AO2 T00760023

Closest aviation forecast (TAF) to Dick Huvaere's Heliport

Closest forecast is Pellston Regional Airport of Emmet County Airport, 11.0 nm (20.4 km) NNE. Retrieved 2019/10/17 18:33 UTC (4 hours ago):

TAF KPLN 171731Z 1718/1818 33011KT P6SM BKN035 FM172100 33011G19KT P6SM BKN050 FM172300 33008KT P6SM SCT070 FM180900 00000KT P6SM BKN030 FM181200 00000KT P6SM SCT080